CheckWX is a tool to help pilots better visualize weather data.  It is not intended as a substitute for an official pre-flight weather briefing.

05:17:10 UTC

CYWJ METAR
Déline Airport
Déline, Canada
Current

5 hours ago

CYWJ 200000Z 28006KT 20SM BKN015 M13/M16 A2985 RMK SC7 CIG RAG S01 AFT 1400 UTC LAST STFD OBS/NXT 20 1400 UTC SLP134
Observed
Feb-20 @ 00:00 UTC
Wind
  • 280° at 6 KTS
Visibility
32,187 meters
Flight Rules
MVFR
Cloud Levels
  • Broken at 1,500' AGL
Temperature
-13°C / 9°F
Dewpoint
-16°C / 3°F
Humidity
78%
Altimeter
29.85" Hg
Pressure
1013.4 hPa
Previous

6 hours ago

CYWJ 192321Z 28006KT 20SM BKN019 M13/M16 A2983 RMK SC7 CIG RAG SLP128
Observed
Feb-19 @ 23:21 UTC
Wind
  • 280° at 6 KTS
Visibility
32,187 meters
Flight Rules
MVFR
Cloud Levels
  • Broken at 1,900' AGL
Temperature
-13°C / 9°F
Dewpoint
-16°C / 3°F
Humidity
78%
Altimeter
29.83" Hg
Pressure
1012.8 hPa
Previous

6 hours ago

CYWJ 192300Z 29006KT 15SM BKN014 M14/M17 A2982 RMK SC7 CIG RAG SLP126
Observed
Feb-19 @ 23:00 UTC
Wind
  • 290° at 6 KTS
Visibility
24,140 meters
Flight Rules
MVFR
Cloud Levels
  • Broken at 1,400' AGL
Temperature
-14°C / 7°F
Dewpoint
-17°C / 1°F
Humidity
78%
Altimeter
29.82" Hg
Pressure
1012.6 hPa